• Join FlightAware (Why Join?)
  • Login
  • US Flag 
09:44PM EST


 

Airport Tracker/Info


-or-


 

Live Flight TrackerFlight Track Log ✈ AMF1324 ✈ 21-Mar-2014 ✈ KBGM - KBUF

Flight Track Log - Related Links

Times and Time Zones

All times are in EDT time to prevent confusion due to time zone crossing. See the AMF1324 flight status page for this flight to view local times or setup timezone preferences in your user account.

Time Position Orientation Groundspeed Altitude Reporting Facility
EDT Latitude Longitude Course Direction KTS MPH feet Rate Location/Type
08:05AM 42.2522 -76.0797 297° West 147 169 8,200  Level New York Center
08:06AM 42.2686 -76.1314 293° West 152 175 10,500 1,920 Climbing New York Center
08:07AM 42.2850 -76.1858 292° West 152 175 12,100 780 Climbing New York Center
08:08AM 42.3150 -76.2586 299° West 182 209 12,100 -60 Level New York Center
08:09AM 42.1665 -76.1664 304° West  Level FlightAware Approximate
08:09AM 42.3386 -76.3333 293° West 209 241 12,000  Level New York Center
08:10AM 42.3664 -76.4058 297° West 214 246 12,000  Level New York Center
08:12AM 42.3937 -76.4976 294° West  Level FlightAware Approximate
08:12AM 42.4283 -76.5806 294° West 217 250 12,000  Level Cleveland Center
08:13AM 42.4547 -76.6544 296° West 218 251 12,000  Level Cleveland Center
08:14AM 42.4828 -76.7275 298° West 218 251 12,000  Level Cleveland Center
08:15AM 42.5117 -76.8169 294° West 218 251 12,000  Level Cleveland Center
08:16AM 42.5378 -76.8889 296° West 218 251 12,000  Level Cleveland Center
08:17AM 42.5619 -76.9636 294° West 218 251 12,000  Level Cleveland Center
08:19AM 42.5861 -77.0403 293° West 218 251 12,000  Level Cleveland Center
08:20AM 42.6108 -77.1161 294° West 218 251 12,000  Level Cleveland Center
08:20AM 42.6342 -77.2008 291° West 220 253 12,000  Level Cleveland Center
08:21AM 42.6328 -77.1928 103° East 218 251 12,000  Level Cleveland Center
08:21AM 42.6578 -77.2758 292° West 221 254 12,000  Level Cleveland Center
08:22AM 42.6564 -77.2689 105° East 218 251 12,000  Level Cleveland Center
08:23AM 42.6842 -77.3606 292° West 219 252 12,000  Level Cleveland Center
08:23AM 42.7075 -77.4208 298° West 218 251 12,000 -120 Level Cleveland Center
08:24AM 42.7117 -77.4342 293° West 219 252 11,900 -720 Descending Cleveland Center
08:24AM 42.7347 -77.4969 297° West 227 261 11,300 -720 Descending Cleveland Center
08:25AM 42.7411 -77.5092 305° West 223 257 11,200 -1,020 Descending Cleveland Center
08:25AM 42.7692 -77.5694 302° West 226 260 10,300 -1,080 Descending Cleveland Center
08:26AM 42.7744 -77.5825 299° West 229 264 10,100 -900 Descending Cleveland Center
08:27AM 42.8033 -77.6561 298° West 237 273 9,300 -780 Descending Cleveland Center
08:27AM 42.8036 -77.6608 275° West 236 272 9,300 -780 Level Cleveland Center
08:27AM 42.8319 -77.7244 301° West 223 257 8,600 -1,080 Descending Cleveland Center
08:28AM 42.8403 -77.7494 294° West 229 264 8,200 -900 Descending Cleveland Center
08:28AM 42.8386 -77.8097 268° West 231 266 7,700 -840 Descending Cleveland Center
08:29AM 42.8386 -77.8403 270° West 241 277 7,400 -900 Descending Cleveland Center
08:30AM 42.8383 -77.9319 270° West 235 270 6,500 -1,020 Descending Cleveland Center
08:31AM 42.8425 -78.0222 274° West 230 265 5,400 -1,020 Descending Cleveland Center
08:32AM 42.8486 -78.0978 276° West 227 261 4,400 -720 Descending Cleveland Center
08:33AM 42.8564 -78.1969 276° West 227 261 4,000 -240 Descending Cleveland Center
08:34AM 42.8611 -78.2833 274° West 232 267 4,000  Level Cleveland Center
08:35AM 42.8706 -78.3736 278° West 231 266 4,000 -120 Level Cleveland Center
08:36AM 42.8817 -78.4594 280° West 223 257 3,800 -660 Descending Cleveland Center
08:37AM 42.8858 -78.5339 274° West 215 247 2,700 -720 Descending Cleveland Center
08:38AM 42.8825 -78.5983 266° West 191 220 2,400 -360 Descending Cleveland Center
08:39AM 42.9000 -78.6500 295° West 103 119 1,900 -480 Descending Buffalo TRACON
08:40AM 42.9167 -78.6833 304° West 113 130 1,400 -600 Descending Buffalo TRACON
08:42AM 42.9333 -78.7167 270° West  Level FlightAware Approximate
08:49AM 42.9404 -78.7306 270° West  Level Estimated
08:50AM 42.9404 -78.7306 270° West  Level Estimated